Time;durP1;ratioP1;P1;durP2;ratioP2;P2;SDS_P1;SDS_P2;PMS_P1;PMS_P2;Temp;Humidity;BMP_temperature;BMP_pressure;BME280_temperature;BME280_humidity;BME280_pressure;Samples;Min_cycle;Max_cycle;Signal;HPM_P1;HPM_P2
2021/11/16 00:01:13;;;;;;;107.25;59.00;;;;;;;3.32;87.92;101562.22;5051845;28;20045;-63
2021/11/16 00:03:39;;;;;;;109.32;59.70;;;;;;;3.41;87.96;101565.00;5052053;28;20024;-63
2021/11/16 00:06:05;;;;;;;105.88;59.80;;;;;;;3.51;88.27;101569.41;5050545;28;20049;-63
2021/11/16 00:08:31;;;;;;;111.10;59.75;;;;;;;3.56;87.93;101566.47;5052733;28;20075;-63
2021/11/16 00:10:57;;;;;;;104.75;59.75;;;;;;;3.71;88.32;101564.03;5055345;28;20020;-63
2021/11/16 00:13:23;;;;;;;105.05;59.92;;;;;;;3.95;86.86;101557.94;5055572;28;20104;-63
2021/11/16 00:15:48;;;;;;;103.10;57.85;;;;;;;3.98;85.42;101556.47;5036397;28;20031;-53
2021/11/16 00:18:16;;;;;;;96.80;57.10;;;;;;;4.11;85.92;101568.53;5086827;28;20108;-60
2021/11/16 00:20:44;;;;;;;103.75;60.33;;;;;;;4.11;85.43;101568.53;5055359;28;20048;-60
2021/11/16 00:23:17;;;;;;;103.55;57.40;;;;;;;4.12;86.04;101559.91;5054462;28;20405;-63
2021/11/16 00:25:44;;;;;;;102.40;59.45;;;;;;;4.22;86.32;101569.84;5055049;28;20404;-63
2021/11/16 00:28:10;;;;;;;118.65;66.00;;;;;;;4.26;85.64;101554.13;5055468;28;20425;-63
2021/11/16 00:30:35;;;;;;;112.97;64.32;;;;;;;4.27;86.10;101558.53;5055203;28;20063;-64
2021/11/16 00:33:01;;;;;;;104.50;60.10;;;;;;;4.23;86.41;101550.03;5055301;28;20466;-63
2021/11/16 00:35:26;;;;;;;99.00;59.00;;;;;;;4.22;86.85;101547.59;5055727;28;20037;-63
2021/11/16 00:37:52;;;;;;;112.03;64.10;;;;;;;4.22;87.29;101559.53;5055238;28;20021;-59
2021/11/16 00:40:20;;;;;;;114.68;67.20;;;;;;;4.26;87.48;101554.94;5055010;28;20029;-61
2021/11/16 00:42:48;;;;;;;112.10;62.83;;;;;;;4.31;87.46;101545.59;5055067;28;20033;-58
2021/11/16 00:45:14;;;;;;;110.57;61.53;;;;;;;4.35;87.55;101541.78;5055540;28;20021;-58
2021/11/16 00:47:42;;;;;;;102.32;60.50;;;;;;;4.44;87.10;101544.56;5054840;28;20036;-63
2021/11/16 00:50:08;;;;;;;109.75;61.90;;;;;;;4.48;87.26;101537.19;5055599;28;20017;-64
2021/11/16 00:52:33;;;;;;;107.40;61.95;;;;;;;4.48;87.67;101539.97;5055044;28;20094;-62
2021/11/16 00:54:59;;;;;;;107.70;61.85;;;;;;;4.49;87.60;101547.16;5054708;28;20409;-59
2021/11/16 00:57:24;;;;;;;101.38;61.45;;;;;;;4.54;87.57;101548.94;5055272;28;20029;-61
2021/11/16 00:59:50;;;;;;;108.85;63.80;;;;;;;4.57;87.67;101557.44;5054716;28;20583;-58
2021/11/16 01:02:16;;;;;;;105.82;61.53;;;;;;;4.56;88.67;101541.88;5055049;28;20029;-63
2021/11/16 01:04:48;;;;;;;107.25;63.03;;;;;;;4.58;88.99;101547.13;5054879;28;20127;-55
2021/11/16 01:07:15;;;;;;;112.43;63.30;;;;;;;4.60;88.45;101540.06;5055181;28;20377;-56
2021/11/16 01:09:40;;;;;;;109.07;62.72;;;;;;;4.64;88.35;101540.22;5054593;28;20017;-58
2021/11/16 01:12:06;;;;;;;112.38;62.55;;;;;;;4.65;88.87;101542.66;5054931;28;20348;-62
2021/11/16 01:14:31;;;;;;;108.15;61.17;;;;;;;4.70;88.59;101543.66;5054975;28;20108;-56
2021/11/16 01:16:57;;;;;;;110.53;64.10;;;;;;;4.75;88.63;101546.25;5054698;28;20029;-64
2021/11/16 01:19:23;;;;;;;112.78;63.28;;;;;;;4.79;88.46;101541.63;5053782;28;20056;-62
2021/11/16 01:21:49;;;;;;;118.32;65.28;;;;;;;4.81;88.38;101540.13;5054899;28;20222;-62
2021/11/16 01:24:14;;;;;;;118.45;66.45;;;;;;;4.83;89.11;101534.22;5053373;28;20083;-52
2021/11/16 01:26:43;;;;;;;114.10;64.88;;;;;;;4.84;89.19;101533.06;5055141;28;20104;-63
2021/11/16 01:29:08;;;;;;;112.65;64.07;;;;;;;4.88;89.39;101528.44;5055401;28;20033;-63
2021/11/16 01:31:34;;;;;;;120.95;65.03;;;;;;;4.93;89.40;101553.31;5058657;28;20031;-63
2021/11/16 01:34:01;;;;;;;119.88;66.63;;;;;;;4.98;89.95;101544.81;5058335;28;20260;-60
2021/11/16 01:36:27;;;;;;;120.40;67.78;;;;;;;5.04;89.24;101532.31;5058949;28;20103;-62
2021/11/16 01:38:56;;;;;;;121.53;67.43;;;;;;;5.00;88.92;101553.63;5058180;28;20064;-63
2021/11/16 01:41:22;;;;;;;120.35;67.50;;;;;;;5.02;89.58;101551.31;5058294;28;20405;-55
2021/11/16 01:43:48;;;;;;;119.07;67.95;;;;;;;5.05;89.56;101547.88;5058595;28;20361;-54
2021/11/16 01:46:18;;;;;;;115.90;67.57;;;;;;;5.09;89.07;101531.28;5058204;28;20355;-61
2021/11/16 01:48:48;;;;;;;120.05;65.70;;;;;;;5.08;88.99;101532.44;5058205;28;20059;-50
2021/11/16 01:51:15;;;;;;;121.50;69.20;;;;;;;4.99;88.93;101534.47;5058203;28;20027;-64
2021/11/16 01:53:41;;;;;;;120.38;69.03;;;;;;;4.94;89.57;101538.28;5057857;28;20036;-58
2021/11/16 01:56:07;;;;;;;117.15;68.13;;;;;;;4.94;89.74;101543.84;5058035;28;20037;-65
2021/11/16 01:58:33;;;;;;;115.22;67.30;;;;;;;4.96;89.74;101541.53;5058422;28;20029;-63
2021/11/16 02:00:58;;;;;;;112.30;65.82;;;;;;;4.92;89.32;101543.34;5058029;28;20455;-55
2021/11/16 02:03:24;;;;;;;119.22;66.80;;;;;;;5.01;90.10;101555.28;5057995;28;20021;-55
2021/11/16 02:05:53;;;;;;;112.72;65.65;;;;;;;4.99;88.34;101552.00;5058014;28;20028;-64
2021/11/16 02:08:20;;;;;;;115.10;67.45;;;;;;;4.92;88.67;101543.34;5057754;28;20035;-55
2021/11/16 02:10:49;;;;;;;114.25;69.25;;;;;;;4.85;88.61;101549.44;5057538;28;20462;-63
2021/11/16 02:13:20;;;;;;;117.85;68.32;;;;;;;4.80;88.74;101551.63;5057869;28;20032;-65
2021/11/16 02:15:47;;;;;;;88.70;54.22;;;;;;;4.76;89.18;101553.44;5057935;28;20021;-56
2021/11/16 02:18:13;;;;;;;118.88;68.88;;;;;;;4.72;89.06;101555.28;5057779;28;20674;-57
2021/11/16 02:20:49;;;;;;;122.25;69.15;;;;;;;4.63;89.09;101544.97;5057336;28;20033;-62
2021/11/16 02:23:16;;;;;;;126.72;72.68;;;;;;;4.63;89.64;101544.97;5056051;28;20025;-59
2021/11/16 02:25:44;;;;;;;125.45;73.28;;;;;;;4.63;89.57;101538.56;5057468;28;20470;-63
2021/11/16 02:28:10;;;;;;;122.63;69.88;;;;;;;4.63;89.65;101539.38;5057903;28;20048;-60
2021/11/16 02:30:35;;;;;;;126.45;71.22;;;;;;;4.61;89.58;101541.69;5057422;28;20058;-56
2021/11/16 02:33:01;;;;;;;116.40;67.53;;;;;;;4.64;89.20;101537.41;5057343;28;20369;-53
2021/11/16 02:35:27;;;;;;;119.32;68.25;;;;;;;4.57;88.20;101535.16;5057274;28;20025;-52
2021/11/16 02:37:55;;;;;;;126.07;72.72;;;;;;;4.62;88.63;101536.94;5057424;28;20031;-58
2021/11/16 02:40:20;;;;;;;120.03;70.78;;;;;;;4.61;88.65;101529.75;5056686;28;20472;-57
2021/11/16 02:42:47;;;;;;;116.25;68.65;;;;;;;4.62;88.85;101523.84;5056721;28;20158;-57
2021/11/16 02:45:14;;;;;;;119.07;69.60;;;;;;;4.61;88.25;101536.13;5057409;28;20317;-63
2021/11/16 02:47:40;;;;;;;125.05;68.78;;;;;;;4.54;88.08;101530.28;5057004;28;20021;-59
2021/11/16 02:50:07;;;;;;;115.30;68.90;;;;;;;4.50;87.69;101528.50;5056940;28;20024;-52
2021/11/16 02:52:32;;;;;;;115.95;68.30;;;;;;;4.42;86.75;101534.91;5057000;28;20083;-63
2021/11/16 02:54:58;;;;;;;111.68;65.03;;;;;;;4.32;86.89;101527.72;5056828;28;20025;-59
2021/11/16 02:57:24;;;;;;;120.50;66.85;;;;;;;4.25;86.80;101535.78;5043170;28;20120;-58
2021/11/16 02:59:50;;;;;;;126.38;70.05;;;;;;;4.25;87.74;101535.78;5056854;28;20067;-58
2021/11/16 03:02:15;;;;;;;121.15;68.53;;;;;;;4.24;88.40;101537.75;5056874;28;20013;-59
2021/11/16 03:04:45;;;;;;;128.30;71.43;;;;;;;4.24;88.57;101523.03;5056697;28;20367;-58
2021/11/16 03:07:15;;;;;;;111.60;65.10;;;;;;;4.22;88.40;101528.09;5056696;28;20079;-57
2021/11/16 03:09:51;;;;;;;108.97;62.78;;;;;;;4.18;87.47;101529.91;5056887;28;20044;-57
2021/11/16 03:12:17;;;;;;;129.48;72.90;;;;;;;4.19;87.95;101532.38;5056652;28;20059;-59
2021/11/16 03:14:44;;;;;;;143.52;75.72;;;;;;;4.28;88.90;101529.56;5057026;28;20025;-57
2021/11/16 03:17:10;;;;;;;138.73;74.75;;;;;;;4.32;89.60;101528.53;5056636;28;20121;-65
2021/11/16 03:19:36;;;;;;;134.30;77.45;;;;;;;4.38;90.28;101525.56;5056472;28;20408;-62
2021/11/16 03:22:02;;;;;;;133.77;75.07;;;;;;;4.47;90.85;101523.59;5056707;28;20484;-54
2021/11/16 03:24:33;;;;;;;133.93;73.25;;;;;;;4.52;91.16;101518.66;5056508;28;20029;-59
2021/11/16 03:26:58;;;;;;;126.43;73.78;;;;;;;4.59;90.57;101523.69;5056580;28;20028;-60
2021/11/16 03:29:25;;;;;;;122.68;71.70;;;;;;;4.62;90.53;101526.63;5056426;28;20029;-62
2021/11/16 03:32:06;;;;;;;123.10;73.28;;;;;;;4.69;90.69;101528.09;5056043;28;20055;-63
2021/11/16 03:34:32;;;;;;;123.75;74.10;;;;;;;4.70;90.71;101526.94;5055943;28;20021;-62
2021/11/16 03:36:58;;;;;;;123.47;71.65;;;;;;;4.72;90.65;101524.63;5055042;28;20070;-62
2021/11/16 03:39:24;;;;;;;129.35;75.50;;;;;;;4.72;91.05;101530.19;5056154;28;20017;-62
2021/11/16 03:41:49;;;;;;;126.93;74.72;;;;;;;4.75;91.37;101529.53;5055127;28;20017;-63
2021/11/16 03:44:15;;;;;;;128.27;73.65;;;;;;;4.81;91.27;101525.38;5055968;28;20044;-62
2021/11/16 03:46:41;;;;;;;127.40;72.65;;;;;;;4.86;90.75;101525.19;5055836;28;20359;-64
2021/11/16 03:49:09;;;;;;;147.07;85.43;;;;;;;4.90;90.64;101528.94;5055912;28;20078;-62
2021/11/16 03:51:35;;;;;;;134.25;80.45;;;;;;;4.93;90.50;101525.47;5055544;28;20017;-64
2021/11/16 03:54:00;;;;;;;126.50;77.00;;;;;;;4.98;90.32;101530.88;5055737;28;20440;-60
2021/11/16 03:56:26;;;;;;;123.72;72.22;;;;;;;5.05;90.24;101511.63;5055808;28;20066;-51
2021/11/16 03:58:51;;;;;;;120.32;72.72;;;;;;;5.09;90.06;101515.38;5056352;28;20033;-63
2021/11/16 04:01:17;;;;;;;120.50;72.38;;;;;;;5.17;89.83;101524.81;5055656;28;20045;-64
2021/11/16 04:03:43;;;;;;;126.85;75.20;;;;;;;5.18;89.36;101518.91;5054355;28;20412;-63
2021/11/16 04:06:11;;;;;;;124.22;70.53;;;;;;;5.19;89.15;101522.50;5056131;28;20091;-62
2021/11/16 04:08:36;;;;;;;124.55;74.78;;;;;;;5.16;89.40;101518.44;5055363;28;20021;-61
2021/11/16 04:11:03;;;;;;;114.95;71.68;;;;;;;5.17;89.61;101519.25;5055762;28;20412;-55
2021/11/16 04:13:28;;;;;;;114.75;72.28;;;;;;;5.22;89.74;101516.28;5055524;28;20029;-60
2021/11/16 04:15:54;;;;;;;129.05;74.60;;;;;;;5.22;89.34;101516.28;5055397;28;20017;-64
2021/11/16 04:18:20;;;;;;;124.78;75.57;;;;;;;5.23;89.19;101521.53;5055459;28;20059;-60
2021/11/16 04:20:48;;;;;;;124.57;73.32;;;;;;;5.25;89.66;101522.00;5055593;28;20027;-61
2021/11/16 04:23:16;;;;;;;120.15;72.43;;;;;;;5.27;89.29;101519.69;5055693;28;20051;-63
2021/11/16 04:25:43;;;;;;;120.70;71.55;;;;;;;5.24;89.25;101516.75;5055324;28;20021;-64
2021/11/16 04:28:10;;;;;;;123.80;70.97;;;;;;;5.25;89.22;101510.84;5055523;28;20365;-63
2021/11/16 04:30:36;;;;;;;120.72;70.30;;;;;;;5.28;89.22;101515.75;5055124;28;20029;-62
2021/11/16 04:33:01;;;;;;;109.70;66.45;;;;;;;5.35;89.25;101525.53;5054920;28;20408;-62
2021/11/16 04:35:28;;;;;;;111.50;68.60;;;;;;;5.41;88.80;101513.81;5055455;28;20025;-62
2021/11/16 04:37:56;;;;;;;110.90;66.15;;;;;;;5.43;88.13;101516.25;5055005;28;20033;-59
2021/11/16 04:40:30;;;;;;;112.57;67.05;;;;;;;5.36;87.72;101521.56;5055420;28;20021;-53
2021/11/16 04:42:57;;;;;;;110.72;66.03;;;;;;;5.35;88.13;101517.16;5054085;28;20021;-57
2021/11/16 04:45:24;;;;;;;105.22;63.88;;;;;;;5.35;88.23;101517.16;5055368;28;20327;-60
2021/11/16 04:47:55;;;;;;;105.30;63.88;;;;;;;5.33;87.95;101522.25;5054846;28;20058;-63
2021/11/16 05:03:54;;;;;;;131.13;87.78;;;;;;;5.12;89.17;101527.81;5051112;28;20070;-58
2021/11/16 05:06:20;;;;;;;107.38;67.10;;;;;;;5.04;89.56;101531.50;5053599;28;20044;-65
2021/11/16 05:08:47;;;;;;;123.65;75.57;;;;;;;4.99;90.05;101537.25;5057291;28;20017;-64
2021/11/16 05:11:13;;;;;;;114.22;73.82;;;;;;;5.01;90.05;101544.13;5058015;28;20051;-53
2021/11/16 05:13:43;;;;;;;117.78;70.75;;;;;;;5.06;90.30;101531.97;5059007;28;20064;-62
2021/11/16 05:16:10;;;;;;;131.05;81.50;;;;;;;5.10;89.78;101535.69;5058732;28;20086;-53
2021/11/16 05:18:35;;;;;;;112.45;69.68;;;;;;;5.09;89.81;101534.88;5058640;28;20297;-63
2021/11/16 05:21:01;;;;;;;109.40;67.32;;;;;;;5.10;89.57;101530.94;5058744;28;20083;-65
2021/11/16 05:23:26;;;;;;;97.85;63.05;;;;;;;5.07;89.49;101531.63;5058703;28;20404;-66
2021/11/16 05:25:53;;;;;;;103.10;63.55;;;;;;;5.03;89.79;101530.66;5058427;28;20036;-64
2021/11/16 05:28:21;;;;;;;98.03;62.45;;;;;;;5.02;89.76;101540.19;5057767;28;20039;-61
2021/11/16 05:30:47;;;;;;;99.90;61.33;;;;;;;5.04;89.66;101528.69;5058138;28;20021;-56
2021/11/16 05:33:13;;;;;;;101.43;62.92;;;;;;;5.00;89.43;101531.34;5058484;28;20043;-65
2021/11/16 05:35:39;;;;;;;90.18;59.83;;;;;;;5.04;89.81;101528.69;5058582;28;20059;-55
2021/11/16 05:38:04;;;;;;;94.10;61.50;;;;;;;5.01;89.48;101527.41;5058220;28;20060;-59
2021/11/16 05:40:31;;;;;;;93.60;61.83;;;;;;;5.00;89.07;101528.56;5058631;28;20028;-63
2021/11/16 05:42:57;;;;;;;98.88;64.28;;;;;;;5.04;88.81;101532.31;5057719;28;20032;-64
2021/11/16 05:45:23;;;;;;;96.68;61.70;;;;;;;5.05;88.98;101527.53;5058018;28;20025;-61
2021/11/16 05:47:53;;;;;;;96.78;63.42;;;;;;;5.02;88.39;101540.19;5058173;28;20029;-65
2021/11/16 05:50:19;;;;;;;97.72;65.57;;;;;;;4.98;88.57;101539.22;5043935;28;20112;-62
2021/11/16 05:52:44;;;;;;;95.22;61.70;;;;;;;4.97;88.97;101540.38;5057954;28;20376;-64
2021/11/16 05:55:10;;;;;;;96.13;61.40;;;;;;;4.96;89.20;101535.97;5052853;28;20040;-63
2021/11/16 05:57:36;;;;;;;90.95;58.60;;;;;;;5.01;88.75;101529.38;5042976;28;20432;-63
2021/11/16 06:00:06;;;;;;;94.18;61.85;;;;;;;5.07;88.68;101547.53;5039350;28;20073;-62
2021/11/16 06:02:31;;;;;;;95.22;61.75;;;;;;;5.03;88.21;101541.81;5052180;28;20032;-63
2021/11/16 06:04:57;;;;;;;87.55;58.20;;;;;;;5.03;88.36;101550.19;5057339;28;20028;-63
2021/11/16 06:07:22;;;;;;;85.00;57.67;;;;;;;5.05;88.21;101545.09;5051326;28;20419;-63
2021/11/16 06:09:48;;;;;;;86.28;59.30;;;;;;;5.06;88.07;101552.28;5018353;28;20187;-56
2021/11/16 06:12:13;;;;;;;94.45;64.90;;;;;;;5.02;87.96;101554.13;5056671;28;20029;-59
2021/11/16 06:14:39;;;;;;;146.90;91.40;;;;;;;5.01;88.44;101552.50;5057119;28;20029;-64
2021/11/16 06:17:05;;;;;;;192.20;111.30;;;;;;;5.04;88.56;101554.59;5057124;28;20433;-63
2021/11/16 06:19:35;;;;;;;191.63;110.35;;;;;;;5.04;88.63;101553.78;5057658;28;20029;-62
2021/11/16 06:22:01;;;;;;;195.02;112.40;;;;;;;5.01;88.40;101549.69;5057837;28;20100;-63
2021/11/16 06:24:26;;;;;;;271.70;124.45;;;;;;;5.03;89.34;101550.19;5057468;28;20090;-63
2021/11/16 06:26:51;;;;;;;299.63;136.00;;;;;;;5.04;88.83;101560.16;5056811;28;20028;-53
2021/11/16 06:29:17;;;;;;;220.73;110.45;;;;;;;5.05;89.39;101558.19;5057150;28;20039;-64
2021/11/16 06:31:42;;;;;;;193.95;99.10;;;;;;;5.06;89.10;101557.84;5057361;28;20097;-59
2021/11/16 06:34:09;;;;;;;273.98;115.38;;;;;;;5.05;89.20;101558.19;5057533;28;20371;-55
2021/11/16 06:36:37;;;;;;;292.52;124.05;;;;;;;5.04;89.61;101556.56;5057300;28;20320;-55
2021/11/16 06:39:23;;;;;;;194.52;89.90;;;;;;;5.07;89.89;101559.50;5057268;28;20021;-60
2021/11/16 06:41:50;;;;;;;146.23;81.55;;;;;;;5.10;89.51;101553.25;5057127;28;20020;-64
2021/11/16 06:44:18;;;;;;;148.30;82.97;;;;;;;5.12;89.56;101553.72;5057448;28;20021;-59
2021/11/16 06:46:44;;;;;;;143.88;81.95;;;;;;;5.15;89.70;101549.44;5057089;28;20021;-58
2021/11/16 06:49:10;;;;;;;137.50;78.85;;;;;;;5.16;89.87;101551.88;5057216;28;20029;-57
2021/11/16 06:51:38;;;;;;;150.43;79.20;;;;;;;5.19;89.73;101544.81;5056834;28;20024;-63
2021/11/16 06:54:28;;;;;;;105.05;67.00;;;;;;;5.24;90.10;101547.44;5057347;28;20031;-64
2021/11/16 06:56:54;;;;;;;100.38;60.88;;;;;;;5.25;89.84;101563.81;5056103;28;20029;-56
2021/11/16 06:59:21;;;;;;;97.60;60.80;;;;;;;5.24;90.01;101562.19;5057147;28;20401;-59
2021/11/16 07:01:48;;;;;;;92.72;62.47;;;;;;;5.23;90.17;101554.97;5056564;28;20363;-63
2021/11/16 07:04:13;;;;;;;95.80;60.63;;;;;;;5.28;90.51;101567.88;5056871;28;20029;-64
2021/11/16 07:06:48;;;;;;;91.97;59.70;;;;;;;5.34;90.47;101560.13;5043322;28;20099;-58
2021/11/16 07:09:15;;;;;;;97.55;59.70;;;;;;;5.43;90.50;101555.31;5059482;28;20024;-64
2021/11/16 07:11:53;;;;;;;133.32;76.32;;;;;;;5.47;90.08;101562.66;5056272;28;20029;-64
2021/11/16 07:14:21;;;;;;;107.05;66.35;;;;;;;5.53;90.34;101560.50;5057030;28;20102;-58
2021/11/16 07:16:55;;;;;;;100.95;63.58;;;;;;;5.56;90.22;101563.41;5056491;28;20029;-64
2021/11/16 07:19:46;;;;;;;102.53;63.92;;;;;;;5.58;90.42;101571.44;5056599;28;20043;-59
2021/11/16 07:22:25;;;;;;;102.68;67.57;;;;;;;5.63;90.69;101570.41;5056330;28;20443;-57
2021/11/16 07:24:56;;;;;;;98.38;63.83;;;;;;;5.69;91.39;101575.44;5056535;28;20032;-63
2021/11/16 07:27:31;;;;;;;96.45;62.15;;;;;;;5.75;91.33;101573.25;5055274;28;20044;-56
2021/11/16 07:29:58;;;;;;;96.80;61.45;;;;;;;5.80;91.29;101576.69;5056256;28;20028;-62
2021/11/16 07:32:28;;;;;;;101.63;61.35;;;;;;;5.87;91.57;101581.69;5055397;28;20025;-63
2021/11/16 07:35:06;;;;;;;97.38;63.20;;;;;;;5.90;91.41;101578.25;5050613;28;20024;-63
2021/11/16 07:37:38;;;;;;;103.68;64.28;;;;;;;5.95;91.48;101580.81;5049660;28;20021;-63
2021/11/16 07:40:09;;;;;;;99.35;64.25;;;;;;;5.99;91.38;101583.75;5056002;28;20025;-64
2021/11/16 07:42:37;;;;;;;;;;;;;;;6.01;91.41;101578.63;5056691;28;20016;-63
2021/11/16 07:45:11;;;;;;;95.93;59.28;;;;;;;6.03;91.62;101582.75;5055992;28;19908;-57
2021/11/16 07:47:41;;;;;;;93.55;59.33;;;;;;;6.10;91.64;101590.56;5055915;28;20021;-63
2021/11/16 07:50:09;;;;;;;98.10;61.28;;;;;;;6.16;91.43;101583.59;5055923;28;20055;-62
2021/11/16 07:52:35;;;;;;;100.28;62.70;;;;;;;6.22;91.49;101581.38;5055899;28;20032;-63
2021/11/16 07:55:01;;;;;;;94.43;59.80;;;;;;;6.29;91.05;101582.44;5055496;28;20029;-63
2021/11/16 07:57:26;;;;;;;101.15;61.30;;;;;;;6.36;90.40;101590.28;5056119;28;20024;-63
2021/11/16 07:59:55;;;;;;;97.43;60.15;;;;;;;6.39;90.65;101582.03;5055638;28;20036;-63
2021/11/16 08:02:33;;;;;;;94.70;60.42;;;;;;;6.45;90.63;101575.06;5055652;28;20463;-52
2021/11/16 08:05:58;;;;;;;96.40;62.50;;;;;;;6.53;90.68;101584.50;5055832;28;20142;-62
2021/11/16 08:08:19;;;;;;;105.88;63.88;;;;;;;6.60;90.67;101581.97;5054697;28;20116;-63
2021/11/16 08:10:48;;;;;;;103.68;66.30;;;;;;;6.67;90.61;101592.56;5054378;28;20039;-60
2021/11/16 08:13:16;;;;;;;97.13;64.38;;;;;;;6.71;90.77;101585.91;5055699;28;20312;-61
2021/11/16 08:15:44;;;;;;;96.07;62.70;;;;;;;6.77;91.49;101586.50;5055669;28;20100;-60
2021/11/16 08:18:14;;;;;;;97.03;61.58;;;;;;;6.83;91.27;101579.50;5055516;28;20029;-64
2021/11/16 08:20:40;;;;;;;129.30;74.82;;;;;;;6.87;90.70;101574.88;5055427;28;20032;-63
2021/11/16 08:23:08;;;;;;;124.53;74.45;;;;;;;6.90;90.54;101578.97;5055644;28;20039;-63
2021/11/16 08:25:33;;;;;;;109.22;69.30;;;;;;;6.94;90.69;101577.91;5055110;28;20052;-63
2021/11/16 08:28:01;;;;;;;119.18;78.35;;;;;;;6.98;91.44;101570.44;5054365;28;20060;-56
2021/11/16 08:30:28;;;;;;;130.40;80.78;;;;;;;7.01;91.85;101580.94;5055403;28;20074;-57
2021/11/16 08:32:59;;;;;;;117.22;76.40;;;;;;;7.04;92.19;101577.44;5054983;28;20013;-51
2021/11/16 08:35:25;;;;;;;108.25;70.13;;;;;;;7.07;92.34;101582.31;5055538;28;20325;-64
2021/11/16 08:38:00;;;;;;;108.88;70.38;;;;;;;7.11;92.25;101577.66;5054961;28;20032;-54
2021/11/16 08:40:28;;;;;;;105.47;67.32;;;;;;;7.15;91.77;101580.59;5055424;28;20034;-64
2021/11/16 08:42:58;;;;;;;99.80;64.22;;;;;;;7.19;91.29;101577.91;5055137;28;20021;-64
2021/11/16 08:45:28;;;;;;;99.20;64.35;;;;;;;7.24;91.25;101584.06;5055144;28;20033;-65
2021/11/16 08:47:57;;;;;;;99.20;64.55;;;;;;;7.28;91.01;101589.75;5055174;28;20025;-64
2021/11/16 08:50:32;;;;;;;99.60;64.43;;;;;;;7.30;90.72;101593.03;5055623;28;20043;-53
2021/11/16 08:53:02;;;;;;;105.25;65.85;;;;;;;7.32;91.59;101593.47;5054716;28;20528;-58
2021/11/16 08:55:31;;;;;;;107.70;66.82;;;;;;;7.35;91.90;101592.78;5055420;28;20024;-64
2021/11/16 08:57:58;;;;;;;116.03;70.05;;;;;;;7.36;92.04;101594.41;5055072;28;20030;-56
2021/11/16 09:00:33;;;;;;;115.28;69.55;;;;;;;7.35;91.86;101588.00;5054926;28;20067;-66
2021/11/16 09:03:09;;;;;;;115.72;70.13;;;;;;;7.40;91.74;101589.75;5054078;28;20032;-64
2021/11/16 09:05:41;;;;;;;116.35;73.57;;;;;;;7.41;91.39;101594.19;5041384;28;20484;-63
2021/11/16 09:08:15;;;;;;;118.35;73.03;;;;;;;7.47;91.29;101591.97;5054988;28;20036;-65
2021/11/16 09:10:43;;;;;;;120.72;73.78;;;;;;;7.54;91.62;101587.38;5041177;28;20025;-65
2021/11/16 09:13:12;;;;;;;119.03;70.10;;;;;;;7.64;91.82;101589.69;5054999;28;20190;-57
2021/11/16 09:15:43;;;;;;;119.05;70.85;;;;;;;7.73;91.59;101587.59;5054842;28;20024;-65
2021/11/16 09:18:16;;;;;;;125.23;76.67;;;;;;;7.84;91.34;101589.88;5053909;28;20041;-64
2021/11/16 09:20:53;;;;;;;118.15;70.65;;;;;;;7.92;91.36;101588.91;5054744;28;20257;-49
2021/11/16 09:23:24;;;;;;;142.80;79.75;;;;;;;8.01;90.83;101589.59;5054706;28;20404;-60
2021/11/16 09:25:52;;;;;;;147.05;83.20;;;;;;;8.10;90.34;101581.84;5054715;28;20068;-64
2021/11/16 09:28:34;;;;;;;131.45;79.90;;;;;;;8.18;90.51;101578.06;5055227;28;20045;-48
2021/11/16 09:31:00;;;;;;;131.25;79.60;;;;;;;8.29;90.03;101572.75;5054473;28;20024;-63
2021/11/16 09:33:26;;;;;;;131.68;78.88;;;;;;;8.35;88.37;101572.16;5054895;28;20025;-63
2021/11/16 09:35:57;;;;;;;117.95;70.32;;;;;;;8.41;87.55;101566.28;5054346;28;20033;-65
2021/11/16 09:38:44;;;;;;;96.18;57.20;;;;;;;8.48;86.78;101570.09;5053890;28;20021;-60
2021/11/16 09:41:20;;;;;;;89.65;55.55;;;;;;;8.55;86.27;101561.09;5054518;28;20035;-63
2021/11/16 09:43:55;;;;;;;87.18;53.38;;;;;;;8.64;84.42;101567.31;5054887;28;20041;-55
2021/11/16 09:46:20;;;;;;;82.47;52.45;;;;;;;8.73;82.64;101553.09;4960223;28;20095;-64
2021/11/16 09:48:54;;;;;;;89.68;57.83;;;;;;;8.82;82.35;101546.16;4996676;28;20101;-58
2021/11/16 09:51:20;;;;;;;87.10;55.30;;;;;;;8.92;82.50;101541.97;4996629;28;20342;-56
2021/11/16 09:53:46;;;;;;;80.75;52.72;;;;;;;9.02;82.00;101543.41;4998652;28;20128;-59
2021/11/16 09:56:17;;;;;;;82.05;52.22;;;;;;;9.10;81.05;101539.59;4997995;28;20027;-58
2021/11/16 09:58:44;;;;;;;79.82;50.42;;;;;;;9.19;81.82;101532.63;4998574;28;20030;-59
2021/11/16 10:01:09;;;;;;;73.40;45.78;;;;;;;9.24;78.77;101523.09;4998586;28;20112;-58
2021/11/16 10:03:35;;;;;;;69.28;44.45;;;;;;;9.26;78.20;101526.34;4998693;28;20026;-64
2021/11/16 10:06:00;;;;;;;66.03;44.28;;;;;;;9.30;78.28;101516.81;4998443;28;20020;-63
2021/11/16 10:08:28;;;;;;;70.38;45.03;;;;;;;9.35;77.67;101521.34;4998373;28;20057;-55
2021/11/16 10:10:56;;;;;;;66.07;43.40;;;;;;;9.43;76.83;101514.72;4998596;28;20026;-57
2021/11/16 10:13:24;;;;;;;69.32;44.22;;;;;;;9.49;76.72;101513.22;4998453;28;20026;-65
2021/11/16 10:15:55;;;;;;;69.18;43.40;;;;;;;9.54;76.54;101507.31;4998363;28;20080;-66
2021/11/16 10:18:23;;;;;;;70.10;44.22;;;;;;;9.64;76.54;101513.53;4998649;28;20034;-63
2021/11/16 10:20:51;;;;;;;68.93;42.40;;;;;;;9.71;75.18;101508.06;4998102;28;20101;-59
2021/11/16 10:23:29;;;;;;;74.93;45.47;;;;;;;9.77;74.96;101500.97;4998566;28;20022;-64
2021/11/16 10:25:56;;;;;;;68.95;41.67;;;;;;;9.85;75.57;101499.91;4998524;28;20061;-60
2021/11/16 10:28:23;;;;;;;64.95;42.88;;;;;;;9.92;75.60;101497.28;4998368;28;20034;-64
2021/11/16 10:30:49;;;;;;;64.47;42.50;;;;;;;10.03;75.88;101503.09;4998015;28;20054;-63
2021/11/16 10:33:22;;;;;;;65.65;43.17;;;;;;;10.09;74.75;101495.97;4998364;28;20030;-63
2021/11/16 10:35:51;;;;;;;70.00;42.05;;;;;;;10.17;73.63;101495.75;4997963;28;20022;-64
2021/11/16 10:38:24;;;;;;;62.25;40.25;;;;;;;10.32;72.32;101487.59;4998029;28;20018;-52
2021/11/16 10:40:50;;;;;;;59.95;39.17;;;;;;;10.40;71.41;101483.72;4998021;28;20330;-54
2021/11/16 10:43:16;;;;;;;61.85;40.30;;;;;;;10.49;71.18;101484.28;4997668;28;20022;-51
2021/11/16 10:45:46;;;;;;;52.22;35.03;;;;;;;10.55;71.43;101479.16;4998329;28;20033;-54
2021/11/16 10:48:14;;;;;;;61.67;36.83;;;;;;;10.59;70.33;101475.22;4997878;28;20104;-56
2021/11/16 10:50:43;;;;;;;53.97;35.88;;;;;;;10.58;69.14;101476.41;4997843;28;20120;-51
2021/11/16 10:53:11;;;;;;;52.40;35.58;;;;;;;10.69;70.31;101480.22;4997743;28;20041;-58
2021/11/16 10:55:47;;;;;;;54.60;34.50;;;;;;;10.82;68.64;101469.56;4998052;28;20082;-61
2021/11/16 10:58:21;;;;;;;48.53;30.85;;;;;;;10.96;66.97;101466.16;4997708;28;20828;-66
2021/11/16 11:01:08;;;;;;;44.72;29.65;;;;;;;11.04;67.76;101468.69;4997790;28;20046;-63
2021/11/16 11:03:38;;;;;;;50.63;31.75;;;;;;;11.15;66.28;101460.38;4995648;28;20052;-59
2021/11/16 11:06:12;;;;;;;59.00;38.22;;;;;;;11.25;67.30;101465.38;4997612;28;20419;-64
2021/11/16 11:08:49;;;;;;;56.47;36.55;;;;;;;11.33;66.79;101458.63;4997368;28;20335;-51
2021/11/16 11:11:45;;;;;;;64.97;40.53;;;;;;;11.43;67.85;101455.13;4996542;28;20109;-64
2021/11/16 11:14:12;;;;;;;72.03;43.20;;;;;;;11.53;68.98;101456.47;4997253;28;20044;-63
2021/11/16 11:16:40;;;;;;;67.68;40.88;;;;;;;11.68;68.29;101446.19;4997478;28;20022;-64
2021/11/16 11:19:07;;;;;;;59.13;38.83;;;;;;;11.72;67.28;101450.66;4995878;28;20316;-62
2021/11/16 11:21:57;;;;;;;91.80;50.63;;;;;;;11.85;67.13;101456.88;4997364;28;20114;-64
2021/11/16 11:25:00;;;;;;;69.50;42.88;;;;;;;11.86;67.29;101458.50;4997382;28;20023;-64
2021/11/16 11:27:35;;;;;;;65.82;39.45;;;;;;;12.02;65.16;101450.59;4996855;28;20038;-64
2021/11/16 11:30:05;;;;;;;53.60;35.53;;;;;;;12.07;63.17;101450.28;4996951;28;20022;-63
2021/11/16 11:32:36;;;;;;;60.55;38.33;;;;;;;12.08;64.26;101439.81;4996762;28;20147;-63